Vetal, South Dakota
Current Conditions -  °F | °C
As of 2:52 AM on Tuesday 27 Jan 2015 (Local Time) from KIEN Reporting Station
Clear Clear  
Wind Chill: 33°   Ceiling: Unl
Heat Index: 38°   Visibility: 10mi
Dew Point: 27°   Wind: 7mph
Humidity: 65%   Direction: 270°W
Pressure: 30.02"   Gusts: NA
Location:  43.2013°N, 101.679°W
Report Text: KIEN 270952Z AUTO 27006KT 10SM CLR 03/M03 A3002 RMK AO2 SLP163 T00331028
Loading
Personal Weather Stations






























Interactive Weather Map New forecast layout! Learn more

10-Day Weather Forecast

Advertisements
Track Severe Weather on mobile